This is the latest recevied weather packets stored in our database for station/object OK2BOZ-1. If no packets are shown the sender has not sent any weather packets the latest 10 day(s).
| Time | Temp. | Humidity | Pressure | Rain* | Wind** | Luminosity | Snow |
|---|---|---|---|---|---|---|---|
| 1777270412 | 11.67° C | 46% | 1024 hPa | - | - | - | - |
| 1777270096 | 12.22° C | 46% | 1023.9 hPa | - | - | - | - |
| 1777269782 | 12.22° C | 46% | 1023.9 hPa | - | - | - | - |
| 1777269468 | 11.67° C | 48% | 1023.9 hPa | - | - | - | - |
| 1777269154 | 12.22° C | 47% | 1024 hPa | - | - | - | - |
| 1777268839 | 10.56° C | 50% | 1023.9 hPa | - | - | - | - |
| 1777268525 | 11.11° C | 50% | 1024 hPa | - | - | - | - |
| 1777268212 | 10.56° C | 51% | 1024 hPa | - | - | - | - |
| 1777267897 | 10.56° C | 51% | 1024 hPa | - | - | - | - |
| 1777267583 | 10° C | 54% | 1024.1 hPa | - | - | - | - |
| 1777267269 | 8.89° C | 56% | 1024 hPa | - | - | - | - |
| 1777266955 | 8.33° C | 56% | 1024 hPa | - | - | - | - |
| 1777266641 | 8.89° C | 57% | 1024 hPa | - | - | - | - |
| 1777266327 | 8.33° C | 59% | 1024 hPa | - | - | - | - |
| 1777266013 | 8.33° C | 59% | 1023.9 hPa | - | - | - | - |
| 1777265699 | 8.89° C | 59% | 1023.9 hPa | - | - | - | - |
| 1777265385 | 8.89° C | 60% | 1023.9 hPa | - | - | - | - |
| 1777265071 | 8.89° C | 62% | 1023.8 hPa | - | - | - | - |
| 1777264757 | 7.78° C | 67% | 1023.8 hPa | - | - | - | - |
| 1777264443 | 7.22° C | 72% | 1023.7 hPa | - | - | - | - |
| 1777264129 | 6.11° C | 77% | 1023.7 hPa | - | - | - | - |
| 1777263815 | 5° C | 80% | 1023.6 hPa | - | - | - | - |
| 1777263502 | 3.89° C | 86% | 1023.5 hPa | - | - | - | - |
| 1777263188 | 3.33° C | 10% | - | - | - | - | - |
| 1777262874 | 2.22° C | 10% | - | - | - | - | - |
* Rain since midnight (hover to see other rain measurements)
** Current wind speed in m/s (hover to see current wind gust speed)